Time;durP1;ratioP1;P1;durP2;ratioP2;P2;SDS_P1;SDS_P2;PMS_P1;PMS_P2;Temp;Humidity;BMP_temperature;BMP_pressure;BME280_temperature;BME280_humidity;BME280_pressure;Samples;Min_cycle;Max_cycle;Signal;HPM_P1;HPM_P2
2022/03/31 04:12:22;;;;;;;25.87;12.53;;;;;;;9.95;79.91;98586.03;5619978;31;489995;-84
2022/03/31 04:15:32;;;;;;;25.58;13.73;;;;;;;9.92;79.92;98591.59;5618468;31;34444;-84
2022/03/31 04:18:36;;;;;;;26.00;13.43;;;;;;;9.93;80.13;98588.81;5589565;31;34368;-84
2022/03/31 04:21:43;;;;;;;28.58;13.10;;;;;;;10.00;79.55;98591.00;5616534;31;34125;-85
2022/03/31 04:24:49;;;;;;;26.37;13.05;;;;;;;10.05;79.27;98594.16;5616190;31;33860;-85
2022/03/31 04:27:56;;;;;;;22.15;12.80;;;;;;;10.09;79.09;98592.94;5616442;31;34016;-85
2022/03/31 04:31:02;;;;;;;24.08;13.07;;;;;;;10.14;78.57;98584.63;5617156;31;34620;-85
2022/03/31 04:34:05;;;;;;;24.65;11.02;;;;;;;10.10;78.80;98590.19;5613729;31;33974;-85
2022/03/31 04:37:08;;;;;;;29.42;13.52;;;;;;;10.90;74.93;98587.59;5613625;31;34117;-85
2022/03/31 04:40:14;;;;;;;29.30;13.70;;;;;;;10.82;74.91;98591.81;5614929;31;34065;-84
2022/03/31 04:43:17;;;;;;;25.95;14.70;;;;;;;10.63;75.74;98582.66;5614253;31;34317;-85
2022/03/31 04:46:20;;;;;;;20.40;12.95;;;;;;;10.67;75.70;98585.94;5612479;31;33831;-85
2022/03/31 04:49:23;;;;;;;23.12;13.50;;;;;;;10.73;74.93;98580.12;5613167;31;34314;-85
2022/03/31 04:52:26;;;;;;;29.55;14.63;;;;;;;10.70;74.31;98586.53;5615444;31;32624;-85
2022/03/31 04:55:29;;;;;;;26.92;13.85;;;;;;;10.56;75.47;98586.78;5614978;31;34136;-85
2022/03/31 04:58:32;;;;;;;23.00;13.20;;;;;;;10.56;75.60;98579.66;5614374;31;34089;-85
2022/03/31 05:01:35;;;;;;;27.17;14.18;;;;;;;10.45;75.83;98572.53;5611455;31;34277;-85
2022/03/31 05:04:39;;;;;;;30.10;13.73;;;;;;;10.65;74.95;98572.78;5609588;31;33873;-84
2022/03/31 05:07:42;;;;;;;27.52;14.52;;;;;;;10.70;74.64;98578.56;5609726;31;34141;-85
2022/03/31 05:10:45;;;;;;;24.20;13.45;;;;;;;10.61;74.95;98577.47;5611393;31;33676;-85
2022/03/31 05:13:48;;;;;;;30.90;14.40;;;;;;;10.73;75.09;98574.81;5610406;31;34116;-85
2022/03/31 05:16:51;;;;;;;25.55;13.93;;;;;;;10.96;74.22;98580.12;5610484;31;33714;-85
2022/03/31 05:19:53;;;;;;;35.80;14.02;;;;;;;11.03;73.84;98578.66;5610876;31;34122;-85
2022/03/31 05:22:57;;;;;;;28.42;14.60;;;;;;;10.98;74.79;98576.37;5600958;31;33977;-86
2022/03/31 05:25:59;;;;;;;30.37;14.07;;;;;;;10.93;75.22;98567.94;5603518;31;34026;-84
2022/03/31 05:29:02;;;;;;;26.02;14.70;;;;;;;10.85;75.43;98576.50;5604246;31;35136;-88
2022/03/31 05:32:07;;;;;;;32.17;14.77;;;;;;;10.79;76.38;98571.69;5602705;31;35248;-84
2022/03/31 05:35:11;;;;;;;25.23;14.07;;;;;;;10.78;76.55;98581.44;5602237;31;34042;-85
2022/03/31 05:38:14;;;;;;;27.48;15.10;;;;;;;10.96;75.50;98580.12;5583585;32;34489;-86
2022/03/31 05:41:18;;;;;;;30.73;16.12;;;;;;;10.76;75.54;98585.22;5582980;31;34169;-85
2022/03/31 05:44:23;;;;;;;27.58;14.95;;;;;;;10.56;77.34;98579.66;5594417;31;33963;-85
2022/03/31 05:47:34;;;;;;;24.58;14.85;;;;;;;10.71;76.96;98585.56;5593288;31;34027;-85
2022/03/31 05:50:36;;;;;;;24.17;14.87;;;;;;;10.75;77.38;98584.34;5592970;31;33657;-85
2022/03/31 05:53:39;;;;;;;28.70;15.27;;;;;;;10.85;76.50;98573.84;5592580;31;33869;-85
2022/03/31 05:56:43;;;;;;;33.65;17.98;;;;;;;10.77;77.15;98576.28;5593792;31;34293;-85
2022/03/31 05:59:46;;;;;;;29.77;18.00;;;;;;;10.74;79.17;98576.50;5593503;31;34062;-84
2022/03/31 06:02:56;;;;;;;26.00;18.20;;;;;;;10.65;80.52;98575.44;5601017;31;34264;-84
2022/03/31 06:06:28;;;;;;;35.17;18.80;;;;;;;10.60;81.39;98575.81;5573845;32;35135;-86
2022/03/31 06:10:02;;;;;;;39.30;18.12;;;;;;;10.42;82.05;98580.72;5574285;32;34258;-86
2022/03/31 06:13:28;;;;;;;26.45;17.33;;;;;;;10.43;82.23;98586.88;5588057;31;35464;-84
2022/03/31 06:16:52;;;;;;;32.80;18.50;;;;;;;10.62;81.07;98586.28;5586641;31;34684;-89
2022/03/31 06:19:54;;;;;;;27.35;17.27;;;;;;;10.44;82.66;98584.13;5585439;32;33939;-89
2022/03/31 06:22:57;;;;;;;31.33;18.08;;;;;;;10.34;83.18;98586.59;5586067;32;34104;-90
2022/03/31 06:26:26;;;;;;;31.67;18.65;;;;;;;10.51;82.26;98590.63;5586623;32;35179;-87
2022/03/31 06:30:04;;;;;;;33.35;19.10;;;;;;;10.44;83.10;98586.75;5586740;32;34301;-86
2022/03/31 06:33:34;;;;;;;35.03;18.75;;;;;;;10.31;84.68;98593.97;5584212;31;35145;-87
2022/03/31 06:36:37;;;;;;;32.10;18.52;;;;;;;10.43;85.08;98601.00;5584521;31;33145;-87
2022/03/31 06:39:44;;;;;;;33.88;18.60;;;;;;;10.47;84.20;98598.94;5583456;32;34675;-87
2022/03/31 06:42:50;;;;;;;40.30;20.80;;;;;;;10.34;85.54;98597.22;5603636;31;33836;-87
2022/03/31 06:46:00;;;;;;;36.15;20.33;;;;;;;10.36;88.15;98610.34;5601068;31;34313;-87
2022/03/31 06:49:05;;;;;;;27.98;18.67;;;;;;;10.23;90.91;98613.09;5588606;31;35138;-87
2022/03/31 06:52:33;;;;;;;30.37;19.67;;;;;;;10.31;90.28;98617.81;5603207;31;34226;-84
2022/03/31 06:55:45;;;;;;;36.00;20.12;;;;;;;10.19;92.09;98616.94;5591845;31;34197;-88
2022/03/31 06:58:47;;;;;;;31.40;20.05;;;;;;;10.04;93.64;98624.22;5591285;31;35152;-89
2022/03/31 07:02:17;;;;;;;32.55;19.50;;;;;;;9.94;95.57;98629.37;5584924;32;35189;-89
2022/03/31 07:05:22;;;;;;;35.15;19.27;;;;;;;9.90;94.97;98622.66;5569699;32;32982;-84
2022/03/31 07:08:27;;;;;;;35.58;20.70;;;;;;;9.69;97.92;98623.28;5586072;32;34409;-86
2022/03/31 07:11:31;;;;;;;34.22;20.02;;;;;;;9.68;98.94;98626.88;5583091;32;35146;-85
2022/03/31 07:14:44;;;;;;;36.28;20.92;;;;;;;9.65;98.94;98621.84;5568233;32;32815;-85
2022/03/31 07:17:49;;;;;;;42.13;20.92;;;;;;;9.54;99.36;98615.53;5570508;32;34721;-84
2022/03/31 07:20:57;;;;;;;31.73;20.98;;;;;;;9.44;100.00;98614.50;5581117;32;33671;-85
2022/03/31 07:24:01;;;;;;;33.53;21.40;;;;;;;9.52;100.00;98606.84;5576658;32;35166;-85
2022/03/31 07:27:05;;;;;;;40.20;21.75;;;;;;;9.39;100.00;98608.69;5578847;32;34260;-84
2022/03/31 07:30:08;;;;;;;35.95;21.90;;;;;;;9.44;100.00;98610.06;5577294;31;33787;-84
2022/03/31 07:33:11;;;;;;;32.70;21.20;;;;;;;9.41;100.00;98610.28;5577526;31;33869;-84
2022/03/31 07:36:19;;;;;;;38.53;21.08;;;;;;;9.55;100.00;98614.56;5580261;31;34063;-84
2022/03/31 07:39:22;;;;;;;40.03;22.08;;;;;;;9.51;100.00;98621.03;5605225;31;34230;-85
2022/03/31 07:42:25;;;;;;;34.20;21.17;;;;;;;9.38;100.00;98612.31;5609577;31;35202;-83
2022/03/31 07:45:30;;;;;;;33.30;21.23;;;;;;;9.38;100.00;98614.94;5595549;31;35340;-85
2022/03/31 07:48:33;;;;;;;36.33;20.83;;;;;;;9.46;100.00;98609.97;5594224;31;34144;-85
2022/03/31 07:51:36;;;;;;;32.90;20.00;;;;;;;9.43;100.00;98612.81;5583860;31;34576;-86
2022/03/31 07:54:39;;;;;;;34.30;21.52;;;;;;;9.51;100.00;98612.25;5592224;31;34394;-86
2022/03/31 07:57:43;;;;;;;39.45;20.83;;;;;;;9.35;100.00;98612.53;5612511;31;35040;-87
2022/03/31 08:00:50;;;;;;;34.22;20.50;;;;;;;9.46;100.00;98603.81;5606499;31;33753;-89
2022/03/31 08:03:54;;;;;;;37.42;20.12;;;;;;;9.47;100.00;98611.63;5594921;31;34743;-87
2022/03/31 08:06:57;;;;;;;36.90;19.70;;;;;;;9.76;100.00;98613.09;5589684;31;34080;-83
2022/03/31 08:10:00;;;;;;;28.23;19.50;;;;;;;9.55;100.00;98613.69;5585684;31;33667;-85
2022/03/31 08:13:04;;;;;;;31.27;19.60;;;;;;;9.65;100.00;98611.25;5610411;31;34159;-83
2022/03/31 08:16:09;;;;;;;41.85;20.88;;;;;;;9.84;100.00;98608.91;5610318;31;34104;-87
2022/03/31 08:19:13;;;;;;;42.92;22.23;;;;;;;9.79;100.00;98611.06;5615352;31;34741;-86
2022/03/31 08:22:17;;;;;;;34.50;21.87;;;;;;;9.57;100.00;98609.97;5599180;31;33098;-89
2022/03/31 08:25:42;;;;;;;41.95;21.70;;;;;;;9.41;100.00;98606.81;5304660;30;20096;-89
2022/03/31 08:28:45;;;;;;;39.47;20.37;;;;;;;9.28;100.00;98593.59;5566856;32;35284;-89
2022/03/31 08:31:49;;;;;;;32.72;20.62;;;;;;;9.30;100.00;98575.81;5554701;32;33922;-87
2022/03/31 08:42:22;;;;;;;38.03;20.45;;;;;;;9.63;100.00;98566.34;5443451;26;20111;-88
2022/03/31 08:45:25;;;;;;;38.03;18.65;;;;;;;9.93;100.00;98564.12;5574164;32;33976;-88
2022/03/31 08:48:28;;;;;;;33.38;18.15;;;;;;;10.24;100.00;98569.72;5575721;32;35189;-89
2022/03/31 08:55:12;;;;;;;35.03;19.40;;;;;;;10.94;98.20;98556.34;5576581;26;20077;-87
2022/03/31 08:58:16;;;;;;;29.85;19.55;;;;;;;9.98;100.00;98552.25;5527311;32;34663;-91
2022/03/31 09:01:19;;;;;;;32.25;20.17;;;;;;;9.94;100.00;98550.78;5531947;32;34261;-93
2022/03/31 09:08:07;;;;;;;34.55;20.88;;;;;;;9.86;100.00;98542.56;5562658;26;20085;-87
2022/03/31 09:11:10;;;;;;;29.02;18.98;;;;;;;9.67;100.00;98543.13;5563856;32;33854;-90
2022/03/31 09:14:13;;;;;;;35.58;19.77;;;;;;;9.61;100.00;98536.47;5574864;32;34139;-85
2022/03/31 09:17:17;;;;;;;33.83;19.50;;;;;;;9.52;100.00;98535.38;5565800;32;33645;-88
2022/03/31 09:20:21;;;;;;;35.50;18.98;;;;;;;9.41;100.00;98525.59;5560646;31;33746;-90
2022/03/31 09:23:31;;;;;;;36.60;20.90;;;;;;;9.60;100.00;98532.16;5568150;32;34488;-90
2022/03/31 09:26:45;;;;;;;33.78;20.92;;;;;;;9.72;100.00;98525.09;5625536;26;33732;-88
2022/03/31 09:29:49;;;;;;;36.33;20.73;;;;;;;9.77;100.00;98514.16;5575297;32;34893;-88
2022/03/31 09:32:52;;;;;;;38.78;21.37;;;;;;;9.69;100.00;98512.06;5572320;32;34036;-88
2022/03/31 09:36:12;;;;;;;35.13;20.20;;;;;;;9.61;100.00;98510.00;5552541;32;33823;-89
2022/03/31 09:39:17;;;;;;;29.55;18.83;;;;;;;9.63;100.00;98508.09;5553198;32;33909;-88
2022/03/31 09:42:20;;;;;;;34.50;20.15;;;;;;;9.68;100.00;98510.38;5554746;32;34346;-87
2022/03/31 09:45:23;;;;;;;37.28;19.20;;;;;;;9.52;100.00;98510.72;5553767;31;33940;-86
2022/03/31 09:48:26;;;;;;;35.30;18.42;;;;;;;9.45;100.00;98505.03;5569835;32;34178;-88
2022/03/31 09:51:29;;;;;;;36.50;17.48;;;;;;;9.72;100.00;98514.50;5564279;31;33662;-90
2022/03/31 09:54:32;;;;;;;36.67;17.60;;;;;;;10.76;100.00;98508.31;5570771;32;34222;-90
2022/03/31 09:57:38;;;;;;;35.00;19.65;;;;;;;11.23;100.00;98493.91;5571541;32;34107;-90
2022/03/31 10:00:42;;;;;;;30.67;19.80;;;;;;;10.85;100.00;98499.59;5571927;32;33773;-89
2022/03/31 10:03:45;;;;;;;32.13;19.80;;;;;;;10.33;100.00;98480.72;5556439;32;33967;-86
2022/03/31 10:06:49;;;;;;;33.25;20.08;;;;;;;9.99;100.00;98484.19;5572663;32;34046;-86
2022/03/31 10:09:52;;;;;;;35.47;20.10;;;;;;;9.87;100.00;98478.06;5571924;32;34333;-86
2022/03/31 10:13:03;;;;;;;42.62;22.42;;;;;;;9.70;100.00;98472.25;5563446;32;34499;-86
2022/03/31 10:16:09;;;;;;;36.28;21.02;;;;;;;9.56;100.00;98467.19;5562437;32;34342;-91
2022/03/31 10:19:29;;;;;;;35.78;21.15;;;;;;;9.98;100.00;98453.37;5559743;32;33796;-89
2022/03/31 10:29:17;;;;;;;47.53;22.98;;;;;;;9.71;100.00;98460.69;5620184;26;33903;-90
2022/03/31 10:33:08;;;;;;;32.70;21.80;;;;;;;9.73;100.00;98465.88;5638175;26;34045;-88
2022/03/31 10:36:15;;;;;;;34.38;19.87;;;;;;;9.69;100.00;98465.28;5571108;26;34139;-89
2022/03/31 10:39:24;;;;;;;36.92;20.92;;;;;;;9.67;100.00;98469.81;5608338;26;33718;-87
2022/03/31 10:42:27;;;;;;;33.03;19.52;;;;;;;9.56;100.00;98467.19;5556828;32;34673;-88
2022/03/31 10:45:38;;;;;;;40.42;19.00;;;;;;;9.59;100.00;98452.88;5566877;32;33900;-88
2022/03/31 10:48:49;;;;;;;35.90;19.65;;;;;;;10.45;100.00;98455.06;5559500;32;34209;-89
2022/03/31 10:51:53;;;;;;;28.92;19.15;;;;;;;10.19;100.00;98447.34;5553140;32;33944;-90
2022/03/31 10:58:35;;;;;;;36.17;19.60;;;;;;;10.27;100.00;98444.09;5544045;32;33553;-89
2022/03/31 11:01:39;;;;;;;35.30;20.62;;;;;;;10.01;100.00;98425.81;5541516;32;34329;-90
2022/03/31 11:05:00;;;;;;;32.58;20.88;;;;;;;10.04;100.00;98421.13;5566633;26;34320;-90
2022/03/31 11:08:07;;;;;;;34.75;19.80;;;;;;;10.03;100.00;98421.22;5603976;26;33317;-89
2022/03/31 11:11:19;;;;;;;29.87;18.52;;;;;;;10.00;100.00;98427.59;5568785;32;33813;-88
2022/03/31 11:14:23;;;;;;;33.25;19.95;;;;;;;10.00;100.00;98417.00;5569400;32;34401;-87
2022/03/31 11:17:30;;;;;;;30.17;18.60;;;;;;;9.89;100.00;98417.00;5570313;32;34628;-88
2022/03/31 11:20:34;;;;;;;32.35;19.42;;;;;;;9.68;100.00;98405.34;5558652;32;34058;-88
2022/03/31 11:23:46;;;;;;;34.60;20.73;;;;;;;9.60;100.00;98405.06;5566724;32;33818;-88
2022/03/31 11:26:50;;;;;;;30.20;19.52;;;;;;;9.68;100.00;98402.69;5577681;31;32988;-89
2022/03/31 11:29:58;;;;;;;32.60;20.15;;;;;;;9.66;100.00;98409.06;5615546;26;34037;-90
2022/03/31 11:33:03;;;;;;;30.30;19.92;;;;;;;9.62;100.00;98400.53;5589423;26;33702;-89
2022/03/31 11:36:06;;;;;;;34.67;19.83;;;;;;;9.57;100.00;98398.22;5583787;31;34208;-89
2022/03/31 11:39:09;;;;;;;30.67;18.67;;;;;;;9.59;100.00;98397.28;5634032;26;34653;-88
2022/03/31 11:42:12;;;;;;;29.23;20.20;;;;;;;9.63;100.00;98393.41;5561570;26;33165;-89
2022/03/31 11:45:46;;;;;;;31.15;19.12;;;;;;;9.57;100.00;98384.97;5556934;32;33854;-87
2022/03/31 11:52:55;;;;;;;29.67;19.77;;;;;;;9.57;100.00;98389.44;893887;26;20515;-89
2022/03/31 11:56:03;;;;;;;29.33;19.90;;;;;;;9.43;100.00;98378.13;5544181;32;31644;-90
2022/03/31 11:59:06;;;;;;;34.80;19.95;;;;;;;9.52;100.00;98373.94;5547778;32;34557;-87
2022/03/31 12:02:17;;;;;;;28.60;19.12;;;;;;;9.50;100.00;98373.19;5569015;26;33700;-86
2022/03/31 12:05:21;;;;;;;32.17;19.23;;;;;;;9.53;100.00;98367.66;5551325;32;34053;-86
2022/03/31 12:08:25;;;;;;;32.90;19.62;;;;;;;9.50;100.00;98364.44;5532228;32;33927;-87
2022/03/31 12:11:29;;;;;;;30.10;19.65;;;;;;;9.48;100.00;98356.59;5535775;32;34314;-87
2022/03/31 12:14:34;;;;;;;32.60;20.55;;;;;;;9.43;100.00;98350.81;5535734;32;33815;-86
2022/03/31 12:17:37;;;;;;;35.58;21.12;;;;;;;9.52;100.00;98343.97;5537581;32;33944;-88
2022/03/31 12:20:40;;;;;;;34.75;20.83;;;;;;;9.43;100.00;98327.00;5544415;32;34465;-88
2022/03/31 12:31:23;;;;;;;32.22;19.83;;;;;;;9.43;100.00;98306.69;5544201;32;19995;-87
2022/03/31 12:34:26;;;;;;;34.13;20.92;;;;;;;9.50;100.00;98314.13;5552302;32;34474;-88
2022/03/31 12:37:36;;;;;;;36.92;21.00;;;;;;;9.53;100.00;98313.88;5549059;32;33902;-87
2022/03/31 12:40:43;;;;;;;29.73;20.08;;;;;;;9.57;100.00;98307.41;5596830;26;34125;-89
2022/03/31 13:22:14;;;;;;;38.78;21.52;;;;;;;9.39;100.00;98307.88;5526526;26;20138;-89
2022/03/31 13:25:20;;;;;;;33.70;20.50;;;;;;;9.47;100.00;98298.47;5534139;32;34036;-89
2022/03/31 13:28:26;;;;;;;32.75;20.55;;;;;;;9.59;100.00;98297.50;5531888;32;34070;-89
2022/03/31 13:31:31;;;;;;;32.13;20.83;;;;;;;9.48;100.00;98292.22;5532399;32;34376;-87
2022/03/31 13:34:35;;;;;;;36.92;22.10;;;;;;;9.59;100.00;98294.03;5531651;32;33943;-89
2022/03/31 13:37:38;;;;;;;30.15;21.17;;;;;;;9.51;100.00;98281.41;5531719;32;34329;-89
2022/03/31 13:40:42;;;;;;;35.25;21.95;;;;;;;9.61;100.00;98276.22;5533010;32;33991;-91
2022/03/31 13:43:45;;;;;;;36.42;23.12;;;;;;;9.47;100.00;98272.03;5530419;32;34746;-89
2022/03/31 13:46:48;;;;;;;36.83;22.40;;;;;;;9.38;100.00;98270.94;5532441;32;35389;-89
2022/03/31 13:49:52;;;;;;;40.63;24.60;;;;;;;9.29;100.00;98283.09;5532279;32;33907;-88
2022/03/31 13:56:16;;;;;;;37.13;23.17;;;;;;;9.19;100.00;98263.63;5531241;32;34000;-83
2022/03/31 14:02:42;;;;;;;37.67;24.45;;;;;;;9.08;100.00;98251.19;5530548;32;33796;-83
2022/03/31 14:05:46;;;;;;;43.38;24.90;;;;;;;9.15;100.00;98240.03;5533129;32;33808;-82
2022/03/31 14:08:50;;;;;;;42.00;26.33;;;;;;;9.08;100.00;98237.97;5535460;32;34036;-83
2022/03/31 14:11:55;;;;;;;41.05;24.77;;;;;;;9.14;100.00;98230.41;5527845;32;33897;-82
2022/03/31 14:14:58;;;;;;;38.78;25.48;;;;;;;9.09;100.00;98216.72;5530886;32;34288;-82
2022/03/31 14:18:04;;;;;;;38.75;24.70;;;;;;;9.11;100.00;98217.41;5530724;32;34567;-85
2022/03/31 14:21:09;;;;;;;37.60;24.95;;;;;;;9.14;100.00;98217.19;5532171;32;34292;-83
2022/03/31 14:24:13;;;;;;;44.35;25.20;;;;;;;9.12;100.00;98216.47;5540092;32;34000;-85
2022/03/31 14:27:16;;;;;;;32.35;23.27;;;;;;;9.14;100.00;98203.97;5532405;32;33964;-83
2022/03/31 14:30:19;;;;;;;44.03;23.42;;;;;;;9.13;100.00;98201.44;5530655;32;33947;-86
2022/03/31 14:33:23;;;;;;;42.20;24.42;;;;;;;9.06;100.00;98200.25;5535660;32;34184;-86
2022/03/31 14:36:27;;;;;;;39.88;23.20;;;;;;;8.97;100.00;98197.38;5531578;32;33597;-86
2022/03/31 14:39:30;;;;;;;35.50;22.98;;;;;;;9.14;100.00;98185.44;5532111;32;33910;-86
2022/03/31 14:42:33;;;;;;;39.60;23.42;;;;;;;9.06;100.00;98197.59;5515521;32;33884;-86
2022/03/31 14:45:36;;;;;;;34.35;22.35;;;;;;;9.02;100.00;98195.19;5529523;32;34392;-86
2022/03/31 14:48:41;;;;;;;36.38;22.62;;;;;;;9.02;100.00;98189.06;5530267;32;34326;-86
2022/03/31 14:51:46;;;;;;;35.88;21.80;;;;;;;8.98;100.00;98187.63;5529952;32;33520;-86
2022/03/31 14:54:50;;;;;;;36.22;21.83;;;;;;;8.96;100.00;98182.44;5528903;32;35219;-86
2022/03/31 14:57:52;;;;;;;40.90;22.35;;;;;;;8.99;100.00;98184.84;5530061;32;33915;-86
2022/03/31 15:00:55;;;;;;;31.20;20.55;;;;;;;9.00;100.00;98175.94;5530102;32;33938;-85
2022/03/31 15:03:59;;;;;;;32.30;21.55;;;;;;;9.00;100.00;98165.38;5530448;32;34452;-86
2022/03/31 15:07:03;;;;;;;34.65;20.88;;;;;;;9.05;100.00;98159.72;5539791;32;33835;-86
2022/03/31 15:17:13;;;;;;;26.62;17.48;;;;;;;9.03;100.00;98154.56;5440327;32;34552;-85
2022/03/31 15:20:18;;;;;;;35.15;19.23;;;;;;;8.95;100.00;98149.03;5441348;32;33646;-85
2022/03/31 15:23:23;;;;;;;30.62;18.35;;;;;;;8.87;100.00;98141.72;5532418;32;34762;-85
2022/03/31 15:26:27;;;;;;;26.08;18.75;;;;;;;8.87;100.00;98141.72;5529645;32;33669;-85
2022/03/31 15:29:29;;;;;;;32.63;18.87;;;;;;;8.84;100.00;98141.09;5530857;32;33923;-86
2022/03/31 15:32:32;;;;;;;27.25;18.40;;;;;;;8.87;100.00;98135.59;5529860;32;34446;-86
